Temps Etape 1 et Heures de D├ępart Etape 2  
 
HeureConducteurAsaCoéquipierVoitureGroupeClassePénaTempsEcarts
09h323BAUD LionelMONT-BLANCCRAEN FabienCITROËN DS3 WRCA8W 0:35:38,60 
09h342DURBEC ThibaultVARRENUCCI Jacques-JulienCITROËN DS3 WRCA8W 0:35:45,000:06,40
09h361MICHEL SylvainSAVOIEVANESTE LaraSKODA Fabia R5RR5 0:35:48,5000:09,90
09h384CUOQ Jean-MarieARDECHEGRANDEMANGE MarielleCITROËN C4 WRCFA8W 0:35:53,000:14,40
09h405TIRABASSI BriceSAINT-RAPHAËLDECLERCK LoïcHyundai i20 R5RR5 0:36:23,7000:45,10
09h426FERAUD CyrilleGRASSELAZZARINI Jean-PaulCITROËN C4 WRCFA8W 0:37:18,3001:39,70
09h4411MORDACQ ArnaudDETROITRATIER Marie-NoelleMITSUBISHI Lancer Evo9FN4 0:37:55,2002:16,60
09h467BEAUBELIQUE Jean-CharlesLIMOUSIN AUTOMOBILE CLUBPESENTI JulienCITROËN DS3 WRCA8W 0:38:01,002:22,40
09h4812LAMOURET PaulCASTINEDELPECH FlorentMITSUBISHI Lancer Evo9FA8 0:38:40,4003:01,80
09h5027CODOU StephanGARD-CEVENNESBERTRAND KarineSUBARU Impreza WRXN4 0:38:43,1003:04,50
09h528LAPOUILLE HuguesDETROITDESQUIRET AlexandreCITROËN DS3 R5RR5 0:39:24,8003:46,20
09h5425ALVERNHES FlorentDU VARBARRAL FlorianMITSUBISHI Lancer Evo9FN4 0:39:30,8003:52,20
09h5619ASTIER LoïcSAINT-RAPHAËLDINI GilbertCITROËN DS3 R3RR3 0:39:40,4004:01,80
09h5851BAUDOIN ThomasSAINT-RAPHAËLBASSO MargotPEUGEOT 208 VTIRR2 0:39:47,4004:08,80
10h0022PREVALET MickaëlSEQUANIEPAGNIER MatthieuCITROËN DS3 R3RR3 0:39:48,2004:09,60
10h0228PELUTTIERO LoïcGRASSEPELUTTIERO JorisSUBARU ImprezaFN4 0:39:55,3004:16,70
10h0416CLARETY JérômeCASTINELACOSTE VincentMITSUBISHI Lancer EvoXRR4 0:39:56,9004:18,30
10h069PRINZIE StefaanBelgiqueVERMEULEN SharonSKODA Fabia R5RR5 0:40:10,2004:31,60
10h0710GUINCHARD EmmanuelSEQUANIECHATELAIN MickaelPEUGEOT 208 T16RR5 4:07:59,20Rallye 2
10h0852ROSSEL LéoALESCORIA AlexandrePEUGEOT 208 VTIRR2 0:40:13,7004:35,10
10h0971MOLLARD AlexandreRHÔNEEYMIN NicolasPEUGEOT 208 VTIRR2 0:40:37,1004:58,50
10h1018LOBRY MickaëlQUERCYPARADE GaëtanMITSUBISHI Lancer EvoXRR4 0:40:47,4005:08,80
10h1117SALIN DanielROUTE D'ARGENTSALIN BrigitteSUBARU Impreza WRXRR4 0:41:02,1005:23,50
10h1237FOURMAUX AdrienNORD DE LA FRANCEPARENT KévinFORD Fiesta R2JRR2J 0:41:13,005:34,40
10h1338FRANCESCHI MathieuGRASSEMANZO BenoîtFORD Fiesta R2JRR2J 0:41:13,1005:34,50
10h1435LEDUC AnthonyARTOIS LITTORALLECLERCQ GuillaumeMITSUBISHI Lancer Evo9FN4 0:41:14,1005:35,50
10h1562MARCHAL EddyVOSGIENJOLÉ DamienCITROËN Saxo T4FA6K 0:41:16,7005:38,10
10h1630GUIGNARD EricMENTONMEFFRE DidierSUBARU Impreza StiFN4 0:41:29,2005:50,60
10h1777DEVANTHERY AurélienSuisseDELASOIE GaëlCITROËN C2 R2RR2 0:41:36,6005:58,0
10h1873MUNSTER GrégoireBelgiqueLOUKA LouisOPEL Adam RallyRR2 0:41:43,3006:04,70
10h1932CAMPAGNOLI GabrieleItalieARENA NicolaSUBARU Impreza StiN4 0:41:49,8006:11,20
10h2014MARTY Jean-PhilippeCASTINEBEAULIEU NoéliseMITSUBISHI Lancer Evo4FA8 0:41:50,2006:11,60
10h2139CARTIER VictorVINS MÂCONMURCIA LouFORD Fiesta R2JRR2J 0:42:06,7006:28,10
10h2229VILANOVA TeddySAINT-RAPHAËLLETOURNEAU LaraMITSUBISHI Lancer Evo9FN4 0:42:09,8006:31,20
10h2336CHASSANIOL JackyKART 63CASAMAYOU JacquelineMITSUBISHI Lancer Evo9FN4 3:55:15,50Rallye 2
10h2457DAZY Jean-PierreVINS MÂCONLOIZEAUX DidierRENAULT Clio RSF200014 0:42:14,7006:36,10
10h2579TEVELLE CédricROUTE D'ARGENTCOTE COLISSON MaximePEUGEOT 306 S16FA7 0:42:20,006:41,40
10h2640FOTIA AnthonyBÂTIMENT ET TRAVAUX PUBLICSSIRUGUE DidierFORD Fiesta R2JRR2J 0:42:26,1006:47,50
10h2776GIUSTI IgorTERRE DE CORSEMALFOY AndyFORD Fiesta R2RR2 0:42:26,8006:48,20
10h2886VITAL Jean-PierreHAUTE VALLÉE DE LA LOIREDECOUZON PierreCITROËN Saxo VTSF200013 0:42:30,7006:52,10
10h2947MASSELIN RomainILE-DE-FRANCECHIAPPE PatrickFORD Fiesta R2JRR2J 0:42:31,4006:52,80
10h3044VARGAS JonathanONDAINEBRION GeoffreyFORD Fiesta R2JRR2J 0:42:34,4006:55,80
10h3141PORTAL KévinSAINT-RAPHAËLGALERA LaurieFORD Fiesta R2JRR2J 0:42:43,6007:05,0
10h3272GUIBERT Jean-ChristopheLANGRESGRACIAL LaurentFORD Fiesta R2RR2 0:42:50,007:11,40
10h3342PONTAL JulienAIX EN PROVENCEBIAGETTI LoanFORD Fiesta R2JRR2J 0:42:54,6007:16,0
10h3554MASCLAUX ArnaudHAUTE VALLÉE DE LA LOIRESPIESSENS AnthonyRENAULT Clio RagnottiF200014 0:43:09,2007:30,60
10h3648GANDELLI DavidALPESLUCON PascalFORD Fiesta R2JRR2J 0:43:14,6007:36,0
10h3721CHAPUS SergeVIGNOBLE TARNAISFAVREAU MathieuCITROËN DS3 R3RR3 0:43:36,5007:57,90
10h3855MARINOT SylvainPAYS DE MONTBELIARDHANRY MarieFORD Escort RS 2000F200014 0:43:39,5008:00,90
10h3956MORARD PhilippeVAISONNAISEGROULIER VincentCITROËN ZX 16VF200014 0:43:47,6008:09,0
10h4049JACQUELIN PierreALESDESNOYERS AlexiaFORD Fiesta R2JRR2J 0:43:51,2008:12,60
10h4150GILLET NicolasHAUTE PROVENCEMERCIER MarjorieFORD Fiesta R2JRR2J 0:43:54,3008:15,70
10h4265MARCOBAL ThierryALESPELAMOURGUES MarineCITROËN Saxo T4FA6K 0:44:00,1008:21,50
10h4361GRANSAGNE AlexandreROUTE D'ARGENTBOUDOU LudovicRENAULT Clio RSF200014 0:44:08,1008:29,50
10h4491GERMAIN AlexVALLÉESPOIROT EdgardPEUGEOT 205 GTIF200013 0:44:09,8008:31,20
10h4584CLAUDE BertrandVOSGIENGROSJEAN SébastienPEUGEOT 306 S16FA7 0:44:14,2008:35,60
10h4698BRISSON EddyLANGRESMASSON PascalSUZUKI Swift SportFN2 0:44:15,7008:37,10
10h4768CHASSANIOL AdrienKART 63CUBIZOLLES ArnaudCITROËN Saxo T4FA6K 0:44:30,4008:51,80
10h4881TARDY AurélienLANGRESBENELHOCINE CyrilPEUGEOT 206 RcFA7 0:44:32,1008:53,50
10h4983MALLON LaurentDÔME FOREZPAUTY TomPEUGEOT 206 RcFA7 4:30:12,50Rallye 2
10h5085BELLIARDO DanielROUTE D'ARGENTFRAISEAU StéphanePEUGEOT 306 S16FN3 4:30:12,50Rallye 2
10h5167PAILLER JulienLuxembourgMICHELS PolCITROËN Saxo T4FA6K 0:44:53,7009:15,10
10h5266QUARROZ DamienLANGRESVOLPI CécileCITROËN Saxo T4FA6K 0:45:12,5009:33,90
10h5394BILLOT ThomasVINS MÂCONCHAMPANAY LionelPEUGEOT 106 S16FA6 0:45:33,7009:55,10
10h54100MOUGIN JulesLANGRESBALLAUD MaximeSUZUKI Swift SportFN2 0:45:34,2009:55,60
10h5593SABATIER FlorentHAUTE VALLÉE DE LA LOIRESANTIAGO ThomasPEUGEOT 106 S16FA6 4:30:12,50Rallye 2
10h5695RAZAFITRIMO AndryROUTE D'ARGENTLACAQUE JulienPEUGEOT 106 S16FA6 4:16:35,20Rallye 2
10h5760STUDER SébastienSuisseSTUDER MaudeRENAULT Clio RSF200014 0:45:58,8010:20,20
10h5859CLEMENT FrédéricSuissePIQUEREZ AlainPEUGEOT 206 RcF200014 0:46:09,8010:31,20
10h5987VAYSSE AdrienROUTE D'ARGENTLAURENS ClémentPEUGEOT 106 S16F2000131m20s0:46:10,1010:31,50
11h0046VERLINDE BenoîtFRANÇAISE DE MECANIQUEVANDEMOORTELE MarcFORD Fiesta R2JRR2J50s0:46:28,8010:50,20
11h0145DALMASSO PaulineGRASSEESCARTEFIGUE JulesFORD Fiesta R2JRR2J 0:46:32,1010:53,50
11h0243VIANO AllisonGRASSEMARCARIO LAZARO PascaleFORD Fiesta R2JRR2J 0:46:44,3011:05,70
11h0375DELIOT LudovicVOSGIENBAUMET EddieCITROËN C2 R2RR2 0:46:44,4011:05,80
11h0497DUHAMEL BenjaminROQUEBRUNE RACING KARTTHERRY PatrickPEUGEOT 106 S16FN2 0:46:52,1011:13,50
11h0558DAVAL GrégoryVOSGIENDAVAL ThibautPEUGEOT 309 GTIF200014 0:47:42,1012:03,50
11h0653JULIA DavidALESAUBERTIN LudovicPEUGEOT 206 RcF200014 4:30:12,50Rallye 2
11h0796MAUVAIS Michel LURONNELAMY DamienPEUGEOT 205 RallyeFA5 0:49:07,7013:29,10
11h0899DOLGOPYATOFF DamienLANGRESPERRIN ChristelleSUZUKI Swift SportFN2 0:49:08,8013:30,20
11h0988CAYLA CorentinROUTE D'ARGENTCAYLA AnaëlCITROËN C2F200013 0:49:41,7014:03,10
11h1015GLEY Jean-PierreLOZEREGLEY MadelineSUBARU ImprezaFA81m0s0:49:44,8014:06,20
11h1190GENDRAU PatriceLANGRESGENDRAU EricCITROËN Saxo VTSF200013 4:15:17,30Rallye 2
11h12103FRANÇOIS LéaLANGRESBOUVARD LucilePEUGEOT 106 S16FN2 0:49:47,5014:08,90
11h13101CHOQUER MickaëlAIX EN PROVENCEARCUCCI JérômeSUZUKI Swift SportFN2 0:50:04,014:25,40
11h1470BIAU Jean-LucSAINT-AFFRIQUEBROLIQUET EricPEUGEOT 206 XSFA6K 0:51:25,5015:46,90
11h15102DI PAOLO AlainDE LA LOIREMORILLON FrédérikaPEUGEOT 106 S16FN2 0:53:29,5017:50,90
11h16104FRANCOIS SolèneLANGRESBENOIT AdelineCITROËN AX SportF200012 4:01:06,70Rallye 2